createdAt,value
2022-08-10T00:03:01.088Z,101405.34
2022-08-10T00:08:04.734Z,101405.42
2022-08-10T00:13:08.997Z,101408.44
2022-08-10T00:18:11.857Z,101408.20
2022-08-10T00:23:36.018Z,101408.13
2022-08-10T00:28:39.401Z,101410.49
2022-08-10T00:33:42.234Z,101410.20
2022-08-10T00:38:45.467Z,101413.07
2022-08-10T00:43:48.382Z,101409.77
2022-08-10T00:49:00.124Z,101412.08
2022-08-10T00:54:03.976Z,101414.62
2022-08-10T00:59:07.004Z,101416.09
2022-08-10T01:04:57.339Z,101417.54
2022-08-10T01:10:03.307Z,101418.08
2022-08-10T01:15:22.636Z,101420.52
2022-08-10T01:20:47.396Z,101426.17
2022-08-10T01:26:30.804Z,101421.50
2022-08-10T01:31:40.627Z,101416.31
2022-08-10T01:36:51.461Z,101417.44
2022-08-10T01:42:03.984Z,101423.07
2022-08-10T01:47:31.475Z,101423.75
2022-08-10T01:52:37.487Z,101429.48
2022-08-10T01:57:42.452Z,101432.76
2022-08-10T02:02:47.099Z,101434.46
2022-08-10T02:07:51.257Z,101429.54
2022-08-10T02:12:57.640Z,101427.95
2022-08-10T02:18:03.164Z,101425.80
2022-08-10T02:23:11.668Z,101422.97
2022-08-10T02:28:27.042Z,101422.20
2022-08-10T02:33:37.177Z,101428.54
2022-08-10T02:38:59.150Z,101430.37
2022-08-10T02:45:20.365Z,101429.12
2022-08-10T02:49:38.936Z,101438.52
2022-08-10T02:54:51.128Z,101437.39
2022-08-10T03:00:00.454Z,101437.14
2022-08-10T03:05:23.599Z,101438.77
2022-08-10T03:10:32.678Z,101436.83
2022-08-10T03:15:39.004Z,101442.55
2022-08-10T03:20:44.018Z,101442.17
2022-08-10T03:25:52.648Z,101441.75
2022-08-10T03:31:00.582Z,101444.18
2022-08-10T03:36:40.038Z,101445.70
2022-08-10T03:41:38.219Z,101446.81
2022-08-10T03:46:44.152Z,101449.45
2022-08-10T03:51:49.388Z,101447.83
2022-08-10T03:56:53.770Z,101443.64
2022-08-10T04:02:44.712Z,101448.08
2022-08-10T04:07:20.077Z,101453.08
2022-08-10T04:12:23.666Z,101454.34
2022-08-10T04:18:04.340Z,101459.10
2022-08-10T04:22:53.409Z,101459.17
2022-08-10T04:27:58.126Z,101451.70
2022-08-10T04:33:03.106Z,101453.37
2022-08-10T04:38:07.165Z,101458.98
2022-08-10T04:43:13.202Z,101460.63
2022-08-10T04:48:40.073Z,101460.36
2022-08-10T04:54:03.257Z,101460.04
2022-08-10T04:59:03.372Z,101441.94
2022-08-10T05:04:34.590Z,101437.39
2022-08-10T05:09:30.446Z,101441.49
2022-08-10T05:14:33.618Z,101445.02
2022-08-10T05:20:03.409Z,101447.13
2022-08-10T05:24:59.469Z,101450.14
2022-08-10T05:30:03.702Z,101454.65
2022-08-10T05:35:07.886Z,101452.64
2022-08-10T05:40:11.128Z,101453.59
2022-08-10T05:45:26.817Z,101449.71
2022-08-10T05:50:34.854Z,101453.27
2022-08-10T05:55:37.695Z,101452.80
2022-08-10T06:00:49.770Z,101451.40
2022-08-10T06:05:58.756Z,101456.54
2022-08-10T06:12:24.048Z,101459.91
2022-08-10T06:16:29.198Z,101455.62
2022-08-10T06:21:33.607Z,101455.41
2022-08-10T06:26:37.049Z,101457.63
2022-08-10T06:31:48.113Z,101453.21
2022-08-10T06:36:57.626Z,101450.14
2022-08-10T06:42:15.966Z,101470.78
2022-08-10T06:47:25.574Z,101470.36
2022-08-10T06:52:31.896Z,101448.16
2022-08-10T06:57:37.767Z,101439.64
2022-08-10T07:02:50.915Z,101432.37
2022-08-10T07:07:58.954Z,101434.04
2022-08-10T07:13:04.467Z,101429.94
2022-08-10T07:18:08.211Z,101428.04
2022-08-10T07:23:57.527Z,101433.41
2022-08-10T07:28:40.860Z,101440.07
2022-08-10T07:33:47.011Z,101439.33
2022-08-10T07:38:51.679Z,101440.63
2022-08-10T07:43:56.258Z,101439.41
2022-08-10T07:49:19.393Z,101432.89
2022-08-10T07:54:25.827Z,101436.02
2022-08-10T07:59:37.976Z,101436.21
2022-08-10T08:04:42.408Z,101438.62
2022-08-10T08:09:57.626Z,101442.79
2022-08-10T08:16:15.919Z,101436.37
2022-08-10T08:20:31.023Z,101432.17
2022-08-10T08:25:34.793Z,101432.58
2022-08-10T08:30:40.127Z,101427.70
2022-08-10T08:35:44.276Z,101420.48
2022-08-10T08:40:59.084Z,101419.70
2022-08-10T08:46:33.443Z,101415.43
2022-08-10T08:52:08.017Z,101407.75
2022-08-10T08:57:50.591Z,101405.55
2022-08-10T09:03:30.282Z,101404.31
2022-08-10T09:09:03.737Z,101399.10
2022-08-10T09:14:30.828Z,101398.65
2022-08-10T09:20:18.769Z,101391.80
2022-08-10T09:25:30.129Z,101397.95
2022-08-10T09:30:38.662Z,101402.73
2022-08-10T09:36:29.832Z,101403.23
2022-08-10T09:41:46.002Z,101401.36
2022-08-10T09:46:52.240Z,101398.91
2022-08-10T09:52:06.401Z,101392.81
2022-08-10T09:57:44.334Z,101389.16
2022-08-10T10:03:06.853Z,101380.04
2022-08-10T10:08:24.030Z,101378.54
2022-08-10T10:14:03.070Z,101372.02
2022-08-10T10:19:15.793Z,101360.11
2022-08-10T10:24:40.311Z,101353.55
2022-08-10T10:30:01.321Z,101353.80
2022-08-10T10:35:09.960Z,101351.32
2022-08-10T10:40:16.240Z,101352.80
2022-08-10T10:45:56.967Z,101341.92
2022-08-10T10:51:35.118Z,101340.02
2022-08-10T10:57:08.268Z,101333.42
2022-08-10T11:02:43.882Z,101331.50
2022-08-10T11:08:09.296Z,101319.95
2022-08-10T11:14:27.100Z,101320.99
2022-08-10T11:18:58.690Z,101318.92
2022-08-10T11:24:48.748Z,101321.55
2022-08-10T11:29:57.946Z,101310.17
2022-08-10T11:35:15.954Z,101306.32
2022-08-10T11:40:26.667Z,101313.08
2022-08-10T11:45:32.601Z,101311.27
2022-08-10T11:51:04.843Z,101307.30
2022-08-10T11:56:11.412Z,101307.17
2022-08-10T12:01:21.101Z,101310.65
2022-08-10T12:06:53.693Z,101308.19
2022-08-10T12:11:50.990Z,101302.66
2022-08-10T12:17:08.267Z,101303.34
2022-08-10T12:22:19.240Z,101298.46
2022-08-10T12:27:52.731Z,101287.59
2022-08-10T12:33:09.639Z,101279.45
2022-08-10T12:38:41.169Z,101281.92
2022-08-10T12:44:04.753Z,101289.06
2022-08-10T12:49:37.389Z,101283.52
2022-08-10T12:54:42.124Z,101280.36
2022-08-10T12:59:48.950Z,101272.63
2022-08-10T13:04:56.224Z,101270.56
2022-08-10T13:10:11.068Z,101259.61
2022-08-10T13:15:48.286Z,101249.70
2022-08-10T13:20:55.700Z,101247.64
2022-08-10T13:26:01.185Z,101243.75
2022-08-10T13:31:08.551Z,101242.05
2022-08-10T13:36:16.048Z,101239.47
2022-08-10T13:41:19.926Z,101235.44
2022-08-10T13:46:23.920Z,101232.40
2022-08-10T13:51:54.152Z,101222.60
2022-08-10T13:56:56.942Z,101217.69
2022-08-10T14:02:02.179Z,101224.23
2022-08-10T14:07:05.723Z,101223.61
2022-08-10T14:12:11.024Z,101226.69
2022-08-10T14:17:17.861Z,101221.85
2022-08-10T14:22:33.717Z,101215.98
2022-08-10T14:28:02.128Z,101213.15
2022-08-10T14:33:06.462Z,101209.48
2022-08-10T14:38:13.449Z,101205.70
2022-08-10T14:43:32.365Z,101204.70
2022-08-10T14:48:41.384Z,101211.76
2022-08-10T14:53:50.308Z,101207.94
2022-08-10T14:59:07.735Z,101207.67
2022-08-10T15:04:15.377Z,101204.32
2022-08-10T15:09:21.572Z,101197.96
2022-08-10T15:14:43.311Z,101199.52
2022-08-10T15:20:03.199Z,101193.55
2022-08-10T15:25:18.734Z,101196.85
2022-08-10T15:30:32.292Z,101198.60
2022-08-10T15:35:57.016Z,101195.11
2022-08-10T15:41:02.410Z,101197.75
2022-08-10T15:46:22.531Z,101195.58
2022-08-10T15:52:01.851Z,101185.60
2022-08-10T15:57:18.141Z,101195.39
2022-08-10T16:02:47.448Z,101200.23
2022-08-10T16:07:59.627Z,101205.64
2022-08-10T16:13:59.854Z,101210.71
2022-08-10T16:18:42.207Z,101211.11
2022-08-10T16:24:11.384Z,101218.95
2022-08-10T16:29:20.649Z,101211.80
2022-08-10T16:34:26.261Z,101210.73
2022-08-10T16:39:57.209Z,101218.61
2022-08-10T16:45:07.734Z,101222.47
2022-08-10T16:50:12.535Z,101222.71
2022-08-10T16:55:24.482Z,101220.42
2022-08-10T17:00:45.989Z,101226.05
2022-08-10T17:06:05.856Z,101226.61
2022-08-10T17:11:15.363Z,101217.98
2022-08-10T17:16:18.369Z,101214.17
2022-08-10T17:21:25.669Z,101212.02
2022-08-10T17:26:35.915Z,101218.55
2022-08-10T17:31:55.460Z,101218.00
2022-08-10T17:37:02.553Z,101222.36
2022-08-10T17:42:07.089Z,101226.12
2022-08-10T17:47:11.825Z,101226.63
2022-08-10T17:52:22.098Z,101227.63
2022-08-10T17:57:27.538Z,101227.45
2022-08-10T18:02:36.806Z,101231.16
2022-08-10T18:07:48.035Z,101237.36
2022-08-10T18:12:56.660Z,101240.87
2022-08-10T18:18:02.730Z,101240.76
2022-08-10T18:23:08.013Z,101244.85
2022-08-10T18:28:18.192Z,101245.77
2022-08-10T18:33:37.320Z,101252.09
2022-08-10T18:38:46.469Z,101257.72
2022-08-10T18:44:06.135Z,101260.46
2022-08-10T18:49:29.028Z,101260.10
2022-08-10T18:54:44.229Z,101265.76
2022-08-10T19:00:13.524Z,101275.13
2022-08-10T19:05:53.591Z,101275.75
2022-08-10T19:11:00.418Z,101277.68
2022-08-10T19:16:21.174Z,101286.02
2022-08-10T19:21:33.226Z,101289.40
2022-08-10T19:26:55.313Z,101286.82
2022-08-10T19:32:10.502Z,101286.57
2022-08-10T19:37:32.170Z,101291.60
2022-08-10T19:42:50.006Z,101288.52
2022-08-10T19:48:04.147Z,101287.45
2022-08-10T19:53:32.866Z,101288.08
2022-08-10T19:59:01.378Z,101281.06
2022-08-10T20:04:16.160Z,101283.30
2022-08-10T20:09:38.573Z,101282.48
2022-08-10T20:15:06.657Z,101284.14
2022-08-10T20:20:15.053Z,101283.92
2022-08-10T20:25:27.890Z,101281.30
2022-08-10T20:30:36.634Z,101281.46
2022-08-10T20:35:49.918Z,101282.02
2022-08-10T20:41:16.550Z,101278.70
2022-08-10T20:46:28.692Z,101280.45
2022-08-10T20:51:58.560Z,101281.89
2022-08-10T20:57:56.145Z,101282.31
2022-08-10T21:03:15.738Z,101277.77
2022-08-10T21:08:40.635Z,101279.72
2022-08-10T21:13:54.067Z,101286.20
2022-08-10T21:19:36.207Z,101287.09
2022-08-10T21:24:49.957Z,101284.10
2022-08-10T21:30:11.449Z,101285.83
2022-08-10T21:35:36.650Z,101288.07
2022-08-10T21:41:17.508Z,101285.85
2022-08-10T21:46:54.554Z,101284.09
2022-08-10T21:52:31.146Z,101282.06
2022-08-10T21:58:21.384Z,101276.61
2022-08-10T22:03:50.510Z,101277.48
2022-08-10T22:09:33.861Z,101279.13
2022-08-10T22:15:06.960Z,101281.54
2022-08-10T22:20:41.521Z,101283.13
2022-08-10T22:26:36.555Z,101283.14
2022-08-10T22:32:31.310Z,101279.91
2022-08-10T22:38:24.866Z,101280.73
2022-08-10T22:43:49.988Z,101283.39
2022-08-10T22:49:01.989Z,101280.23
2022-08-10T22:54:42.937Z,101271.61
2022-08-10T22:59:47.104Z,101263.99
2022-08-10T23:04:59.115Z,101259.55
2022-08-10T23:10:07.501Z,101259.77
2022-08-10T23:15:47.957Z,101256.77
2022-08-10T23:20:53.144Z,101256.48
2022-08-10T23:25:59.453Z,101259.17
2022-08-10T23:31:04.357Z,101263.60
2022-08-10T23:36:33.660Z,101262.11
2022-08-10T23:41:37.526Z,101263.59
2022-08-10T23:46:44.111Z,101267.39
2022-08-10T23:51:56.416Z,101268.94
2022-08-10T23:57:01.789Z,101264.96
